createdAt,value
2018-08-04T00:00:16.825Z,98206.00
2018-08-04T00:02:45.946Z,98196.34
2018-08-04T00:05:15.114Z,98192.45
2018-08-04T00:07:44.856Z,98199.47
2018-08-04T00:10:18.458Z,98199.71
2018-08-04T00:12:51.921Z,98198.25
2018-08-04T00:15:21.472Z,98202.16
2018-08-04T00:17:50.830Z,98199.84
2018-08-04T00:20:19.925Z,98205.05
2018-08-04T00:22:48.649Z,98203.70
2018-08-04T00:25:18.286Z,98208.90
2018-08-04T00:27:47.386Z,98209.70
2018-08-04T00:30:16.529Z,98215.67
2018-08-04T00:32:45.621Z,98207.86
2018-08-04T00:35:15.466Z,98206.59
2018-08-04T00:37:44.585Z,98207.64
2018-08-04T00:40:13.995Z,98203.45
2018-08-04T00:42:43.505Z,98201.89
2018-08-04T00:45:12.851Z,98201.92
2018-08-04T00:47:42.551Z,98205.53
2018-08-04T00:50:11.846Z,98202.17
2018-08-04T00:52:40.969Z,98208.14
2018-08-04T00:55:10.110Z,98206.83
2018-08-04T00:57:39.219Z,98203.21
2018-08-04T01:00:09.128Z,98206.83
2018-08-04T01:02:38.234Z,98206.31
2018-08-04T01:05:07.442Z,98205.03
2018-08-04T01:07:36.538Z,98204.77
2018-08-04T01:10:06.087Z,98207.35
2018-08-04T01:12:35.233Z,98202.69
2018-08-04T01:15:05.044Z,98200.10
2018-08-04T01:17:34.194Z,98200.63
2018-08-04T01:20:05.558Z,98202.16
2018-08-04T01:22:36.674Z,98201.92
2018-08-04T01:25:07.886Z,98194.37
2018-08-04T01:27:37.834Z,98198.27
2018-08-04T01:30:07.457Z,98195.41
2018-08-04T01:32:36.521Z,98196.19
2018-08-04T01:35:06.041Z,98200.09
2018-08-04T01:37:35.167Z,98195.92
2018-08-04T01:40:05.813Z,98194.11
2018-08-04T01:42:34.901Z,98196.89
2018-08-04T01:45:04.065Z,98193.49
2018-08-04T01:47:33.145Z,98197.59
2018-08-04T01:50:02.274Z,98196.58
2018-08-04T01:52:31.415Z,98191.39
2018-08-04T01:55:00.518Z,98193.74
2018-08-04T01:57:29.590Z,98185.97
2018-08-04T01:59:58.916Z,98187.25
2018-08-04T02:02:28.014Z,98182.86
2018-08-04T02:04:57.578Z,98186.20
2018-08-04T02:07:26.738Z,98177.70
2018-08-04T02:09:55.898Z,98179.52
2018-08-04T02:12:25.023Z,98180.62
2018-08-04T02:14:55.007Z,98180.62
2018-08-04T02:17:24.316Z,98175.42
2018-08-04T02:19:53.454Z,98179.85
2018-08-04T02:22:22.527Z,98180.62
2018-08-04T02:24:53.273Z,98179.02
2018-08-04T02:27:22.402Z,98175.85
2018-08-04T02:29:51.670Z,98176.11
2018-08-04T02:32:20.770Z,98176.03
2018-08-04T02:34:50.059Z,98178.59
2018-08-04T02:37:19.174Z,98181.73
2018-08-04T02:39:48.243Z,98175.45
2018-08-04T02:42:17.350Z,98177.83
2018-08-04T02:44:46.486Z,98176.36
2018-08-04T02:47:16.375Z,98185.92
2018-08-04T02:49:45.534Z,98184.83
2018-08-04T02:52:14.631Z,98179.33
2018-08-04T02:54:44.452Z,98182.19
2018-08-04T02:57:13.559Z,98179.07
2018-08-04T02:59:42.677Z,98181.16
2018-08-04T03:02:11.749Z,98181.13
2018-08-04T03:04:40.952Z,98187.42
2018-08-04T03:07:10.059Z,98182.75
2018-08-04T03:09:39.887Z,98178.52
2018-08-04T03:12:08.962Z,98181.01
2018-08-04T03:14:38.070Z,98184.83
2018-08-04T03:17:07.254Z,98184.53
2018-08-04T03:19:36.950Z,98179.65
2018-08-04T03:22:07.270Z,98182.19
2018-08-04T03:24:36.520Z,98177.78
2018-08-04T03:27:06.289Z,98179.83
2018-08-04T03:29:35.028Z,98181.72
2018-08-04T03:32:04.250Z,98178.91
2018-08-04T03:34:33.321Z,98183.31
2018-08-04T03:37:03.219Z,98178.67
2018-08-04T03:39:32.318Z,98183.34
2018-08-04T03:42:01.414Z,98182.06
2018-08-04T03:44:30.505Z,98186.17
2018-08-04T03:47:00.440Z,98185.85
2018-08-04T03:49:29.562Z,98185.02
2018-08-04T03:51:58.639Z,98183.44
2018-08-04T03:54:28.534Z,98189.89
2018-08-04T03:56:57.633Z,98187.59
2018-08-04T03:59:27.525Z,98193.72
2018-08-04T04:01:56.665Z,98192.73
2018-08-04T04:04:26.570Z,98192.28
2018-08-04T04:06:55.625Z,98193.77
2018-08-04T04:09:24.754Z,98201.03
2018-08-04T04:11:53.827Z,98202.04
2018-08-04T04:14:22.902Z,98206.88
2018-08-04T04:16:52.682Z,98204.48
2018-08-04T04:19:21.745Z,98209.41
2018-08-04T04:21:50.814Z,98209.20
2018-08-04T04:24:20.149Z,98208.45
2018-08-04T04:26:48.902Z,98202.20
2018-08-04T04:29:17.989Z,98207.97
2018-08-04T04:31:47.135Z,98209.45
2018-08-04T04:34:16.441Z,98214.12
2018-08-04T04:36:45.559Z,98213.12
2018-08-04T04:39:14.630Z,98217.11
2018-08-04T04:41:43.750Z,98218.77
2018-08-04T04:44:12.898Z,98222.22
2018-08-04T04:46:42.257Z,98216.56
2018-08-04T04:49:13.195Z,98218.92
2018-08-04T04:51:43.294Z,98222.89
2018-08-04T04:54:12.415Z,98225.00
2018-08-04T04:56:41.511Z,98233.02
2018-08-04T04:59:10.605Z,98231.55
2018-08-04T05:01:39.694Z,98236.89
2018-08-04T05:04:08.759Z,98228.13
2018-08-04T05:06:37.878Z,98230.01
2018-08-04T05:09:08.797Z,98226.41
2018-08-04T05:11:37.902Z,98227.41
2018-08-04T05:14:06.978Z,98232.64
2018-08-04T05:16:36.070Z,98238.27
2018-08-04T05:19:05.192Z,98233.94
2018-08-04T05:21:34.336Z,98236.73
2018-08-04T05:24:04.158Z,98237.16
2018-08-04T05:26:33.278Z,98230.20
2018-08-04T05:29:02.466Z,98231.23
2018-08-04T05:31:31.717Z,98230.53
2018-08-04T05:34:00.987Z,98235.13
2018-08-04T05:36:30.433Z,98232.45
2018-08-04T05:38:59.522Z,98241.01
2018-08-04T05:41:28.630Z,98241.94
2018-08-04T05:43:57.705Z,98245.42
2018-08-04T05:46:27.726Z,98244.70
2018-08-04T05:48:57.613Z,98254.65
2018-08-04T05:51:26.329Z,98250.83
2018-08-04T05:53:55.808Z,98250.36
2018-08-04T05:56:25.134Z,98247.56
2018-08-04T05:58:54.607Z,98247.45
2018-08-04T06:01:23.747Z,98245.91
2018-08-04T06:03:53.750Z,98247.08
2018-08-04T06:06:22.841Z,98240.20
2018-08-04T06:08:52.782Z,98242.57
2018-08-04T06:11:21.865Z,98244.62
2018-08-04T06:13:51.426Z,98242.13
2018-08-04T06:16:20.531Z,98249.80
2018-08-04T06:18:49.837Z,98249.83
2018-08-04T06:21:19.890Z,98247.25
2018-08-04T06:23:49.099Z,98247.58
2018-08-04T06:26:18.180Z,98240.70
2018-08-04T06:28:48.103Z,98245.33
2018-08-04T06:31:16.769Z,98243.23
2018-08-04T06:33:46.202Z,98242.87
2018-08-04T06:36:15.354Z,98246.20
2018-08-04T06:38:44.430Z,98249.77
2018-08-04T06:41:13.509Z,98242.39
2018-08-04T06:43:42.670Z,98246.88
2018-08-04T06:46:11.825Z,98238.73
2018-08-04T06:48:40.750Z,98244.50
2018-08-04T06:51:09.885Z,98251.30
2018-08-04T06:53:38.969Z,98249.98
2018-08-04T06:56:08.050Z,98249.44
2018-08-04T06:58:37.177Z,98253.18
2018-08-04T07:01:06.290Z,98246.61
2018-08-04T07:03:35.370Z,98240.61
2018-08-04T07:06:04.533Z,98246.42
2018-08-04T07:08:33.627Z,98246.91
2018-08-04T07:11:03.469Z,98244.83
2018-08-04T07:13:32.593Z,98238.13
2018-08-04T07:16:01.691Z,98245.12
2018-08-04T07:18:31.578Z,98244.02
2018-08-04T07:21:01.702Z,98239.44
2018-08-04T07:23:31.641Z,98239.59
2018-08-04T07:26:00.714Z,98239.19
2018-08-04T07:28:30.466Z,98235.69
2018-08-04T07:30:59.795Z,98234.28
2018-08-04T07:33:28.899Z,98235.77
2018-08-04T07:35:58.058Z,98226.98
2018-08-04T07:38:27.177Z,98233.70
2018-08-04T07:40:56.272Z,98234.07
2018-08-04T07:43:25.887Z,98231.94
2018-08-04T07:45:54.975Z,98236.53
2018-08-04T07:48:24.102Z,98230.28
2018-08-04T07:50:53.939Z,98227.16
2018-08-04T07:53:23.018Z,98230.73
2018-08-04T07:55:52.169Z,98232.19
2018-08-04T07:58:21.254Z,98229.94
2018-08-04T08:00:50.336Z,98231.09
2018-08-04T08:03:20.297Z,98228.21
2018-08-04T08:05:49.355Z,98225.62
2018-08-04T08:08:18.461Z,98230.55
2018-08-04T08:10:47.892Z,98230.53
2018-08-04T08:13:15.547Z,98223.56
2018-08-04T08:15:44.222Z,98225.44
2018-08-04T08:18:13.094Z,98230.09
2018-08-04T08:20:42.219Z,98225.84
2018-08-04T08:23:11.349Z,98229.67
2018-08-04T08:25:45.773Z,98228.66
2018-08-04T08:28:14.897Z,98228.66
2018-08-04T08:30:44.389Z,98223.61
2018-08-04T08:33:13.708Z,98226.36
2018-08-04T08:35:43.956Z,98222.86
2018-08-04T08:38:13.647Z,98220.50
2018-08-04T08:40:44.257Z,98223.48
2018-08-04T08:43:13.491Z,98222.27
2018-08-04T08:45:43.498Z,98217.72
2018-08-04T08:48:12.617Z,98206.11
2018-08-04T08:50:41.799Z,98202.70
2018-08-04T08:53:11.015Z,98204.66
2018-08-04T08:55:40.218Z,98210.98
2018-08-04T08:58:09.350Z,98204.20
2018-08-04T09:00:38.447Z,98202.25
2018-08-04T09:03:08.432Z,98208.52
2018-08-04T09:05:37.554Z,98207.12
2018-08-04T09:08:07.417Z,98201.64
2018-08-04T09:10:36.498Z,98201.72
2018-08-04T09:13:05.682Z,98199.88
2018-08-04T09:15:35.595Z,98199.43
2018-08-04T09:18:04.659Z,98201.98
2018-08-04T09:20:33.745Z,98193.77
2018-08-04T09:23:02.942Z,98198.12
2018-08-04T09:25:32.691Z,98187.48
2018-08-04T09:28:01.804Z,98191.45
2018-08-04T09:30:30.915Z,98192.32
2018-08-04T09:33:00.294Z,98191.59
2018-08-04T09:35:29.449Z,98185.34
2018-08-04T09:37:58.954Z,98190.55
2018-08-04T09:40:28.115Z,98184.38
2018-08-04T09:43:00.739Z,98193.78
2018-08-04T09:45:30.392Z,98185.82
2018-08-04T09:47:59.518Z,98182.92
2018-08-04T09:50:28.649Z,98180.73
2018-08-04T09:52:58.499Z,98177.39
2018-08-04T09:55:27.585Z,98176.05
2018-08-04T09:57:57.574Z,98172.85
2018-08-04T10:00:33.458Z,98172.95
2018-08-04T10:03:03.205Z,98169.82
2018-08-04T10:05:31.197Z,98169.87
2018-08-04T10:08:00.423Z,98164.39
2018-08-04T10:10:30.419Z,98163.53
2018-08-04T10:13:00.361Z,98164.26
2018-08-04T10:15:29.760Z,98160.84
2018-08-04T10:17:59.443Z,98164.79
2018-08-04T10:20:28.645Z,98158.81
2018-08-04T10:22:57.943Z,98155.68
2018-08-04T10:25:28.015Z,98153.83
2018-08-04T10:27:57.264Z,98151.38
2018-08-04T10:30:26.397Z,98152.95
2018-08-04T10:32:56.347Z,98155.03
2018-08-04T10:35:25.748Z,98149.45
2018-08-04T10:37:55.123Z,98153.38
2018-08-04T10:40:24.367Z,98159.39
2018-08-04T10:42:53.642Z,98155.38
2018-08-04T10:45:23.528Z,98156.99
2018-08-04T10:47:53.107Z,98147.67
2018-08-04T10:50:21.866Z,98151.57
2018-08-04T10:52:50.966Z,98153.72
2018-08-04T10:55:20.709Z,98150.23
2018-08-04T10:57:49.793Z,98143.36
2018-08-04T11:00:18.881Z,98149.58
2018-08-04T11:02:47.999Z,98153.96
2018-08-04T11:05:17.078Z,98148.95
2018-08-04T11:07:46.148Z,98149.72
2018-08-04T11:10:15.266Z,98147.10
2018-08-04T11:12:44.374Z,98141.89
2018-08-04T11:15:14.260Z,98153.01
2018-08-04T11:17:43.366Z,98144.92
2018-08-04T11:20:12.662Z,98142.23
2018-08-04T11:22:41.827Z,98136.28
2018-08-04T11:25:11.589Z,98137.83
2018-08-04T11:27:41.226Z,98126.60
2018-08-04T11:30:10.686Z,98129.37
2018-08-04T11:32:40.437Z,98135.47
2018-08-04T11:35:09.539Z,98128.02
2018-08-04T11:37:38.678Z,98133.03
2018-08-04T11:40:07.745Z,98127.36
2018-08-04T11:42:37.582Z,98129.74
2018-08-04T11:45:06.798Z,98128.52
2018-08-04T11:47:35.674Z,98127.53
2018-08-04T11:50:04.976Z,98117.26
2018-08-04T11:52:34.793Z,98122.91
2018-08-04T11:55:04.197Z,98116.13
2018-08-04T11:57:33.902Z,98113.34
2018-08-04T12:00:03.651Z,98118.27
2018-08-04T12:02:32.766Z,98113.05
2018-08-04T12:05:01.883Z,98109.52
2018-08-04T12:07:30.978Z,98115.30
2018-08-04T12:10:00.050Z,98117.54
2018-08-04T12:12:29.208Z,98110.78
2018-08-04T12:14:58.603Z,98107.61
2018-08-04T12:17:27.929Z,98102.21
2018-08-04T12:19:57.350Z,98099.38
2018-08-04T12:22:26.718Z,98096.13
2018-08-04T12:24:54.664Z,98093.16
2018-08-04T12:27:23.953Z,98094.20
2018-08-04T12:29:53.218Z,98100.16
2018-08-04T12:32:21.940Z,98098.67
2018-08-04T12:34:51.062Z,98105.38
2018-08-04T12:37:20.138Z,98102.13
2018-08-04T12:39:49.267Z,98097.24
2018-08-04T12:42:18.364Z,98092.82
2018-08-04T12:44:47.421Z,98097.09
2018-08-04T12:47:16.534Z,98087.84
2018-08-04T12:49:45.672Z,98080.38
2018-08-04T12:52:14.761Z,98084.03
2018-08-04T12:54:43.894Z,98075.89
2018-08-04T12:57:13.690Z,98071.00
2018-08-04T12:59:43.035Z,98070.02
2018-08-04T13:02:12.270Z,98071.22
2018-08-04T13:04:41.761Z,98069.58
2018-08-04T13:07:12.019Z,98067.64
2018-08-04T13:09:41.782Z,98063.00
2018-08-04T13:12:11.681Z,98063.76
2018-08-04T13:14:41.671Z,98064.22
2018-08-04T13:17:11.538Z,98060.73
2018-08-04T13:19:41.413Z,98052.56
2018-08-04T13:22:10.741Z,98045.64
2018-08-04T13:24:40.660Z,98051.30
2018-08-04T13:27:10.345Z,98055.13
2018-08-04T13:29:40.296Z,98057.39
2018-08-04T13:32:09.581Z,98051.52
2018-08-04T13:34:39.246Z,98055.75
2018-08-04T13:37:11.324Z,98055.31
2018-08-04T13:39:42.013Z,98053.12
2018-08-04T13:42:11.113Z,98046.31
2018-08-04T13:44:39.912Z,98049.95
2018-08-04T13:47:08.618Z,98048.73
2018-08-04T13:49:37.782Z,98056.89
2018-08-04T13:52:07.257Z,98052.78
2018-08-04T13:54:36.341Z,98052.00
2018-08-04T13:57:05.945Z,98056.69
2018-08-04T13:59:35.098Z,98053.48
2018-08-04T14:02:04.151Z,98056.02
2018-08-04T14:04:33.225Z,98056.69
2018-08-04T14:07:02.350Z,98047.25
2018-08-04T14:09:32.341Z,98042.37
2018-08-04T14:12:01.492Z,98043.17
2018-08-04T14:14:30.581Z,98041.91
2018-08-04T14:17:00.398Z,98048.25
2018-08-04T14:19:29.741Z,98051.55
2018-08-04T14:21:58.998Z,98049.39
2018-08-04T14:24:28.313Z,98050.53
2018-08-04T14:26:56.322Z,98043.74
2018-08-04T14:29:25.573Z,98037.11
2018-08-04T14:31:54.762Z,98038.20
2018-08-04T14:34:23.865Z,98036.22
2018-08-04T14:36:52.998Z,98037.42
2018-08-04T14:39:22.138Z,98031.14
2018-08-04T14:41:50.993Z,98029.88
2018-08-04T14:44:20.263Z,98034.50
2018-08-04T14:46:49.576Z,98033.91
2018-08-04T14:49:19.575Z,98036.45
2018-08-04T14:51:50.306Z,98032.38
2018-08-04T14:54:19.625Z,98024.56
2018-08-04T14:56:48.756Z,98029.30
2018-08-04T14:59:18.508Z,98023.84
2018-08-04T15:01:47.633Z,98022.50
2018-08-04T15:04:16.822Z,98025.44
2018-08-04T15:06:45.923Z,98022.47
2018-08-04T15:09:14.692Z,98026.45
2018-08-04T15:11:43.766Z,98022.11
2018-08-04T15:14:13.661Z,98021.92
2018-08-04T15:16:42.485Z,98021.03
2018-08-04T15:19:11.570Z,98018.99
2018-08-04T15:21:40.691Z,98015.07
2018-08-04T15:24:10.067Z,98016.82
2018-08-04T15:26:39.142Z,98017.95
2018-08-04T15:29:08.321Z,98027.05
2018-08-04T15:31:38.139Z,98020.98
2018-08-04T15:34:06.829Z,98013.70
2018-08-04T15:36:36.466Z,98004.08
2018-08-04T15:39:08.034Z,97997.89
2018-08-04T15:41:37.150Z,98003.26
2018-08-04T15:44:06.277Z,97999.70
2018-08-04T15:46:35.494Z,98003.30
2018-08-04T15:49:05.689Z,98003.66
2018-08-04T15:51:35.054Z,98003.63
2018-08-04T15:54:05.051Z,98000.55
2018-08-04T15:56:34.626Z,97992.39
2018-08-04T15:59:03.998Z,97994.31
2018-08-04T16:01:33.954Z,97992.55
2018-08-04T16:04:03.844Z,97989.86
2018-08-04T16:06:33.202Z,97993.70
2018-08-04T16:09:01.845Z,97998.65
2018-08-04T16:11:30.963Z,98001.32
2018-08-04T16:14:00.030Z,98003.74
2018-08-04T16:16:29.126Z,98004.70
2018-08-04T16:18:58.229Z,98007.19
2018-08-04T16:21:27.321Z,98000.88
2018-08-04T16:23:56.522Z,98009.56
2018-08-04T16:26:25.654Z,98013.20
2018-08-04T16:28:54.739Z,98021.13
2018-08-04T16:31:23.874Z,98018.05
2018-08-04T16:33:52.953Z,98012.63
2018-08-04T16:36:22.286Z,98021.77
2018-08-04T16:38:51.750Z,98018.67
2018-08-04T16:41:21.067Z,98023.44
2018-08-04T16:43:51.270Z,98027.77
2018-08-04T16:46:21.378Z,98028.82
2018-08-04T16:48:50.477Z,98042.56
2018-08-04T16:51:19.678Z,98025.25
2018-08-04T16:53:48.810Z,98025.91
2018-08-04T16:56:18.425Z,98031.30
2018-08-04T16:58:47.553Z,98029.35
2018-08-04T17:01:17.031Z,98036.48
2018-08-04T17:03:46.133Z,98029.77
2018-08-04T17:06:15.298Z,98030.89
2018-08-04T17:08:44.434Z,98033.02
2018-08-04T17:11:13.532Z,98034.20
2018-08-04T17:13:42.617Z,98042.20
2018-08-04T17:16:11.761Z,98045.69
2018-08-04T17:18:40.870Z,98053.36
2018-08-04T17:21:10.677Z,98051.61
2018-08-04T17:23:40.138Z,98053.35
2018-08-04T17:26:09.805Z,98054.56
2018-08-04T17:28:39.750Z,98059.32
2018-08-04T17:31:09.573Z,98063.27
2018-08-04T17:33:38.986Z,98061.33
2018-08-04T17:36:08.482Z,98072.82
2018-08-04T17:38:37.579Z,98072.57
2018-08-04T17:41:06.726Z,98073.56
2018-08-04T17:43:35.841Z,98068.20
2018-08-04T17:46:05.198Z,98073.37
2018-08-04T17:48:34.691Z,98076.62
2018-08-04T17:51:03.430Z,98078.19
2018-08-04T17:53:32.766Z,98078.22
2018-08-04T17:56:01.598Z,98078.80
2018-08-04T17:58:30.887Z,98078.23
2018-08-04T18:01:00.003Z,98081.25
2018-08-04T18:03:29.496Z,98078.17
2018-08-04T18:05:59.897Z,98086.17
2018-08-04T18:08:29.378Z,98082.69
2018-08-04T18:10:58.695Z,98082.02
2018-08-04T18:13:28.410Z,98086.75
2018-08-04T18:15:57.978Z,98088.64
2018-08-04T18:18:27.057Z,98091.39
2018-08-04T18:20:56.319Z,98089.27
2018-08-04T18:23:26.242Z,98089.04
2018-08-04T18:25:55.933Z,98085.19
2018-08-04T18:28:25.603Z,98088.84
2018-08-04T18:30:55.226Z,98091.12
2018-08-04T18:33:25.013Z,98089.31
2018-08-04T18:35:55.171Z,98090.60
2018-08-04T18:38:24.465Z,98086.65
2018-08-04T18:40:54.039Z,98090.61
2018-08-04T18:43:23.319Z,98089.27
2018-08-04T18:45:53.536Z,98090.73
2018-08-04T18:48:23.032Z,98092.84
2018-08-04T18:50:52.906Z,98095.67
2018-08-04T18:53:22.606Z,98096.78
2018-08-04T18:55:51.703Z,98094.28
2018-08-04T18:58:20.805Z,98100.80
2018-08-04T19:00:49.937Z,98100.24
2018-08-04T19:03:19.290Z,98100.24
2018-08-04T19:05:48.614Z,98101.58
2018-08-04T19:08:17.329Z,98100.31
2018-08-04T19:10:46.438Z,98106.83
2018-08-04T19:13:16.430Z,98106.75
2018-08-04T19:15:46.392Z,98109.58
2018-08-04T19:18:16.235Z,98112.28
2018-08-04T19:20:46.123Z,98117.52
2018-08-04T19:23:17.476Z,98119.19
2018-08-04T19:25:46.850Z,98115.17
2018-08-04T19:28:16.769Z,98119.36
2018-08-04T19:30:46.658Z,98116.10
2018-08-04T19:33:16.861Z,98119.41
2018-08-04T19:35:45.950Z,98111.13
2018-08-04T19:38:15.610Z,98115.45
2018-08-04T19:40:44.719Z,98115.30
2018-08-04T19:43:14.582Z,98119.11
2018-08-04T19:45:43.368Z,98115.62
2018-08-04T19:48:12.534Z,98124.34
2018-08-04T19:50:41.728Z,98120.67
2018-08-04T19:53:10.806Z,98122.27
2018-08-04T19:55:39.958Z,98122.55
2018-08-04T19:58:09.018Z,98123.48
2018-08-04T20:00:38.126Z,98128.73
2018-08-04T20:03:07.254Z,98130.53
2018-08-04T20:05:36.414Z,98136.00
2018-08-04T20:08:05.576Z,98132.30
2018-08-04T20:10:35.023Z,98138.84
2018-08-04T20:13:04.386Z,98143.67
2018-08-04T20:15:33.674Z,98140.05
2018-08-04T20:18:09.698Z,98148.23
2018-08-04T20:20:38.774Z,98150.36
2018-08-04T20:23:07.913Z,98153.18
2018-08-04T20:25:36.877Z,98150.32
2018-08-04T20:28:06.261Z,98147.67
2018-08-04T20:30:35.598Z,98149.05
2018-08-04T20:33:05.513Z,98151.15
2018-08-04T20:35:34.904Z,98155.21
2018-08-04T20:38:04.846Z,98154.44
2018-08-04T20:40:34.514Z,98150.19
2018-08-04T20:43:04.465Z,98156.55
2018-08-04T20:45:33.598Z,98156.72
2018-08-04T20:48:03.406Z,98161.14
2018-08-04T20:50:32.743Z,98154.63
2018-08-04T20:53:02.139Z,98155.47
2018-08-04T20:55:31.507Z,98154.06
2018-08-04T20:58:01.143Z,98153.67
2018-08-04T21:00:40.606Z,98156.22
2018-08-04T21:03:10.638Z,98154.48
2018-08-04T21:05:40.602Z,98155.38
2018-08-04T21:08:09.742Z,98154.30
2018-08-04T21:10:38.823Z,98150.27
2018-08-04T21:13:08.314Z,98140.66
2018-08-04T21:15:38.233Z,98136.84
2018-08-04T21:18:08.153Z,98146.11
2018-08-04T21:20:38.034Z,98144.96
2018-08-04T21:23:07.960Z,98145.98
2018-08-04T21:25:37.854Z,98141.51
2018-08-04T21:28:08.624Z,98143.70
2018-08-04T21:30:38.710Z,98140.06
2018-08-04T21:33:07.881Z,98141.57
2018-08-04T21:35:36.976Z,98141.34
2018-08-04T21:38:06.599Z,98151.48
2018-08-04T21:40:35.695Z,98148.79
2018-08-04T21:43:05.555Z,98150.18
2018-08-04T21:45:34.641Z,98151.48
2018-08-04T21:48:05.418Z,98157.73
2018-08-04T21:50:34.527Z,98154.72
2018-08-04T21:53:03.623Z,98159.36
2018-08-04T21:55:33.007Z,98156.94
2018-08-04T21:58:02.641Z,98157.78
2018-08-04T22:00:32.164Z,98160.73
2018-08-04T22:03:02.472Z,98161.63
2018-08-04T22:05:31.983Z,98159.50
2018-08-04T22:08:18.039Z,98159.72
2018-08-04T22:10:47.098Z,98158.58
2018-08-04T22:13:16.768Z,98158.99
2018-08-04T22:15:45.882Z,98157.81
2018-08-04T22:18:15.011Z,98159.66
2018-08-04T22:20:44.111Z,98160.91
2018-08-04T22:23:14.058Z,98165.69
2018-08-04T22:25:43.138Z,98161.66
2018-08-04T22:28:12.219Z,98163.31
2018-08-04T22:30:42.155Z,98169.05
2018-08-04T22:33:11.254Z,98161.81
2018-08-04T22:35:41.182Z,98170.70
2018-08-04T22:38:10.266Z,98168.17
2018-08-04T22:40:39.329Z,98165.09
2018-08-04T22:43:09.403Z,98158.91
2018-08-04T22:46:07.728Z,98165.17
2018-08-04T22:48:37.206Z,98166.14
2018-08-04T22:51:06.902Z,98176.33
2018-08-04T22:53:36.370Z,98172.17
2018-08-04T22:56:05.772Z,98164.61
2018-08-04T22:58:35.014Z,98160.78
2018-08-04T23:01:03.678Z,98164.27
2018-08-04T23:03:32.770Z,98163.55
2018-08-04T23:06:01.849Z,98165.44
2018-08-04T23:08:30.970Z,98174.27
2018-08-04T23:11:00.058Z,98167.05
2018-08-04T23:13:29.182Z,98174.31
2018-08-04T23:15:59.005Z,98166.72
2018-08-04T23:18:28.154Z,98170.20
2018-08-04T23:20:57.276Z,98168.13
2018-08-04T23:23:26.405Z,98175.22
2018-08-04T23:25:55.854Z,98172.35
2018-08-04T23:28:24.941Z,98174.98
2018-08-04T23:30:54.018Z,98177.06
2018-08-04T23:33:23.111Z,98168.45
2018-08-04T23:35:52.554Z,98170.80
2018-08-04T23:38:21.627Z,98172.63
2018-08-04T23:40:50.698Z,98164.53
2018-08-04T23:43:20.245Z,98166.11
2018-08-04T23:45:49.337Z,98165.08
2018-08-04T23:48:18.577Z,98165.34
2018-08-04T23:50:47.888Z,98170.03
2018-08-04T23:53:17.407Z,98170.02
2018-08-04T23:55:46.622Z,98178.44
2018-08-04T23:58:15.808Z,98182.38
